地図

経路データ

SID SEASON NUMBER BASIN SUBBASIN NAME ISO_TIME NATURE LAT LON WMO_WIND WMO_PRES WMO_AGENCY TRACK_TYPE DIST2LAND LANDFALL IFLAG USA_AGENCY USA_ATCF_ID USA_LAT USA_LON USA_RECORD USA_STATUS USA_WIND USA_PRES USA_SSHS USA_R34_NE USA_R34_SE USA_R34_SW USA_R34_NW USA_R50_NE USA_R50_SE USA_R50_SW USA_R50_NW USA_R64_NE USA_R64_SE USA_R64_SW USA_R64_NW USA_POCI USA_ROCI USA_RMW USA_EYE TOKYO_LAT TOKYO_LON TOKYO_GRADE TOKYO_WIND TOKYO_PRES TOKYO_R50_DIR TOKYO_R50_LONG TOKYO_R50_SHORT TOKYO_R30_DIR TOKYO_R30_LONG TOKYO_R30_SHORT TOKYO_LAND CMA_LAT CMA_LON CMA_CAT CMA_WIND CMA_PRES HKO_LAT HKO_LON HKO_CAT HKO_WIND HKO_PRES NEWDELHI_LAT NEWDELHI_LON NEWDELHI_GRADE NEWDELHI_WIND NEWDELHI_PRES NEWDELHI_CI NEWDELHI_DP NEWDELHI_POCI REUNION_LAT REUNION_LON REUNION_TYPE REUNION_WIND REUNION_PRES REUNION_TNUM REUNION_CI REUNION_RMW REUNION_R34_NE REUNION_R34_SE REUNION_R34_SW REUNION_R34_NW REUNION_R50_NE REUNION_R50_SE REUNION_R50_SW REUNION_R50_NW REUNION_R64_NE REUNION_R64_SE REUNION_R64_SW REUNION_R64_NW BOM_LAT BOM_LON BOM_TYPE BOM_WIND BOM_PRES BOM_TNUM BOM_CI BOM_RMW BOM_R34_NE BOM_R34_SE BOM_R34_SW BOM_R34_NW BOM_R50_NE BOM_R50_SE BOM_R50_SW BOM_R50_NW BOM_R64_NE BOM_R64_SE BOM_R64_SW BOM_R64_NW BOM_ROCI BOM_POCI BOM_EYE BOM_POS_METHOD BOM_PRES_METHOD NADI_LAT NADI_LON NADI_CAT NADI_WIND NADI_PRES WELLINGTON_LAT WELLINGTON_LON WELLINGTON_WIND WELLINGTON_PRES DS824_LAT DS824_LON DS824_STAGE DS824_WIND DS824_PRES TD9636_LAT TD9636_LON TD9636_STAGE TD9636_WIND TD9636_PRES TD9635_LAT TD9635_LON TD9635_WIND TD9635_PRES TD9635_ROCI NEUMANN_LAT NEUMANN_LON NEUMANN_CLASS NEUMANN_WIND NEUMANN_PRES MLC_LAT MLC_LON MLC_CLASS MLC_WIND MLC_PRES USA_GUST BOM_GUST BOM_GUST_PER REUNION_GUST REUNION_GUST_PER USA_SEAHGT USA_SEARAD_NE USA_SEARAD_SE USA_SEARAD_SW USA_SEARAD_NW STORM_SPEED STORM_DIR
1943216N22089 1943 49 NI BB NOT_NAMED 1943-08-04 00:00:00 TS 21.6000 89.2000 main 10 0 _________O____ -1 21.6000 89.2000 TC 30 2 272
1943216N22089 1943 49 NI BB NOT_NAMED 1943-08-04 03:00:00 TS 21.6033 89.1067 main 0 0 _________PO___ -1 21.6050 89.0600 TC 30 21.6000 89.2000 1 2 269
1943216N22089 1943 49 NI BB NOT_NAMED 1943-08-04 06:00:00 TS 21.5970 88.9489 main 0 0 _________OP___ -1 21.6000 88.9000 TC 30 21.5924 89.0221 1 3 267
1943216N22089 1943 49 NI BB NOT_NAMED 1943-08-04 09:00:00 TS 21.5862 88.7666 main 10 10 _________PP___ -1 21.5850 88.7074 TC 30 21.5878 88.8454 1 3 270
1943216N22089 1943 49 NI BB NOT_NAMED 1943-08-04 12:00:00 TS 21.5946 88.5855 main 10 0 _________OP___ -1 21.6000 88.5000 TC 30 21.5893 88.6710 1 3 279
1943216N22089 1943 49 NI BB NOT_NAMED 1943-08-04 15:00:00 TS 21.6425 88.4000 main 0 0 _________PO___ -1 21.6850 88.3000 TC 30 21.6000 88.5000 1 4 289
1943216N22089 1943 49 NI BB NOT_NAMED 1943-08-04 18:00:00 TS 21.7131 88.2154 main 0 0 _________OP___ -1 21.8000 88.1000 TC 30 21.6263 88.3309 1 4 291
1943216N22089 1943 49 NI BB NOT_NAMED 1943-08-04 21:00:00 TS 21.7747 88.0367 main 10 0 _________PP___ -1 21.8624 87.9222 TC 30 21.6871 88.1513 1 4 297
1943216N22089 1943 49 NI BB NOT_NAMED 1943-08-05 00:00:00 TS 21.9022 87.8231 main 0 0 _________OP___ -1 22.0000 87.7000 TC 30 21.8043 87.9461 1 6 309
1943216N22089 1943 49 NI BB NOT_NAMED 1943-08-05 03:00:00 TS 22.1525 87.5363 main 0 0 _________PO___ -1 22.3051 87.3726 TC 30 22.0000 87.7000 1 8 316
1943216N22089 1943 49 NI BB NOT_NAMED 1943-08-05 06:00:00 TS 22.5061 87.2010 main 0 0 _________OP___ -1 22.7000 87.0000 TC 30 22.3122 87.4020 1 10 320
1943216N22089 1943 49 NI BB NOT_NAMED 1943-08-05 09:00:00 TS 22.9024 86.8592 main 0 0 _________PP___ -1 23.1074 86.6574 TC 30 22.6975 87.0610 1 10 321
1943216N22089 1943 49 NI BB NOT_NAMED 1943-08-05 12:00:00 TS 23.3045 86.4947 main 0 0 _________OP___ -1 23.5000 86.3000 TC 30 23.1090 86.6894 1 10 318
1943216N22089 1943 49 NI BB NOT_NAMED 1943-08-05 15:00:00 TS 23.6612 86.1037 main 0 0 _________PO___ -1 23.8224 85.9073 TC 30 23.5000 86.3000 1 10 312
1943216N22089 1943 49 NI BB NOT_NAMED 1943-08-05 18:00:00 TS 23.9621 85.6970 main 0 0 _________OP___ -1 24.1000 85.5000 TC 30 23.8242 85.8941 1 10 308
1943216N22089 1943 49 NI BB NOT_NAMED 1943-08-05 21:00:00 TS 24.2452 85.2776 main 0 0 _________PP___ -1 24.3725 85.0775 TC 30 24.1178 85.4776 1 9 305
1943216N22089 1943 49 NI BB NOT_NAMED 1943-08-06 00:00:00 TS 24.4887 84.8862 main 0 0 _________OP___ -1 24.6000 84.7000 TC 30 24.3774 85.0723 1 8 304
1943216N22089 1943 49 NI BB NOT_NAMED 1943-08-06 03:00:00 TS 24.6824 84.5674 main 0 0 _________PO___ -1 24.7648 84.4347 TC 30 24.6000 84.7000 1 7 303
1943216N22089 1943 49 NI BB NOT_NAMED 1943-08-06 06:00:00 TS 24.8468 84.2901 main 0 0 _________OP___ -1 24.9000 84.2000 TC 30 24.7936 84.3802 1 6 302
1943216N22089 1943 49 NI BB NOT_NAMED 1943-08-06 09:00:00 TS 25.0047 83.9983 main 0 0 _________PP___ -1 25.0575 83.9000 TC 30 24.9519 84.0966 1 6 300
1943216N22089 1943 49 NI BB NOT_NAMED 1943-08-06 12:00:00 TS 25.1422 83.7199 main 0 0 _________OP___ -1 25.2000 83.6000 TC 30 25.0843 83.8398 1 5 297
1943216N22089 1943 49 NI BB NOT_NAMED 1943-08-06 15:00:00 TS 25.2537 83.4675 main 0 0 _________PO___ -1 25.3075 83.3349 TC 30 25.2000 83.6000 1 5 296
1943216N22089 1943 49 NI BB NOT_NAMED 1943-08-06 18:00:00 TS 25.3571 83.2301 main 0 0 _________OP___ -1 25.4000 83.1000 TC 30 25.3142 83.3603 1 5 297
1943216N22089 1943 49 NI BB NOT_NAMED 1943-08-06 21:00:00 TS 25.4573 83.0135 main 0 0 _________PP___ -1 25.4999 82.8924 TC 30 25.4147 83.1346 1 4 297
1943216N22089 1943 49 NI BB NOT_NAMED 1943-08-07 00:00:00 TS 25.5540 82.8083 main 0 0 _________OP___ -1 25.6000 82.7000 TC 30 25.5079 82.9166 1 4 298
1943216N22089 1943 49 NI BB NOT_NAMED 1943-08-07 03:00:00 TS 25.6500 82.6037 main 0 0 _________PO___ -1 25.6999 82.5074 TC 30 25.6000 82.7000 1 4 297
1943216N22089 1943 49 NI BB NOT_NAMED 1943-08-07 06:00:00 TS 25.7500 82.3794 main 0 0 _________OP___ -1 25.8000 82.3000 TC 30 25.7000 82.4587 1 5 295
1943216N22089 1943 49 NI BB NOT_NAMED 1943-08-07 09:00:00 TS 25.8501 82.1313 main 0 0 _________PP___ -1 25.9001 82.0425 TC 30 25.8001 82.2200 1 5 295
1943216N22089 1943 49 NI BB NOT_NAMED 1943-08-07 12:00:00 TS 25.9500 81.8981 main 0 0 _________OP___ -1 26.0000 81.8000 TC 30 25.9001 81.9963 1 4 298
1943216N22089 1943 49 NI BB NOT_NAMED 1943-08-07 15:00:00 TS 26.0500 81.7137 main 0 0 _________PO___ -1 26.0999 81.6275 TC 30 26.0000 81.8000 1 3 304
1943216N22089 1943 49 NI BB NOT_NAMED 1943-08-07 18:00:00 TS 26.1428 81.5800 main 0 0 _________OP___ -1 26.2000 81.5000 TC 30 26.0999 81.6400 1 3 310
1943216N22089 1943 49 NI BB NOT_NAMED 1943-08-07 21:00:00 TS 26.2400 81.4640 main 0 0 _________PP___ -1 26.3000 81.3950 TC 30 26.1999 81.5100 1 3 315
1943216N22089 1943 49 NI BB NOT_NAMED 1943-08-08 00:00:00 TS 26.3333 81.3667 main 0 0 _________OP___ -1 26.4000 81.3000 TC 30 26.3000 81.4001 1 2 318
1943216N22089 1943 49 NI BB NOT_NAMED 1943-08-08 03:00:00 NR 26.4000 81.3000 main 0 __________O___ -1 TC 26.4000 81.3000 1 2 319

IBTrACS Databaseについて

本データベースは、米国NOAAが公開する1842年以降の世界の熱帯低気圧のベストトラックデータアーカイブInternational Best Track Archive for Climate Stewardship (IBTrACS)を、ウェブで閲覧しやすい形式に変換したものです。

最終更新日:2021-11-26